• Join FlightAware (Why Join?)
  • Login
  • US Flag 
06:47PM EDT


 

Airport Tracker/Info


-or-


 

Live Flight TrackerFlight Track Log ✈ UAL1240 ✈ 12-Jul-2013 ✈ KIAH - KLAX

Flight Track Log - Related Links

Times and Time Zones

All times are in EDT time to prevent confusion due to time zone crossing. See the UAL1240 flight status page for this flight to view local times or setup timezone preferences in your user account.

Time Position Orientation Groundspeed Altitude Reporting Facility
EDT Latitude Longitude Course Direction KTS MPH feet Rate Location/Type
09:12AM 29.9270 -95.3420 212° Southwest 199 229 1,600  Level FlightAware
09:12AM 29.9210 -95.3550 242° Southwest 207 238 2,100 2,460 Climbing FlightAware
09:13AM 29.9200 -95.3670 265° West 209 241 2,600 2,160 Climbing FlightAware
09:13AM 29.9230 -95.3980 276° West 238 274 3,400 1,920 Climbing FlightAware
09:13AM 29.9340 -95.4320 290° West 266 306 4,300 2,400 Climbing FlightAware
09:14AM 29.9490 -95.4740 292° West 280 322 5,700 2,820 Climbing FlightAware
09:15AM 29.9755 -95.5933 282° West 303 349 9,500 2,820 Climbing FlightAware ADS-B
09:16AM 29.9850 -95.6429 282° West 310 357 10,900 2,520 Climbing FlightAware ADS-B
09:16AM 29.9945 -95.6927 282° West 321 369 12,100 1,740 Climbing FlightAware ADS-B
09:18AM 30.0402 -95.9327 282° West 409 471 15,400 1,680 Climbing FlightAware ADS-B
09:19AM 30.0526 -95.9980 282° West 418 481 16,400 1,860 Climbing FlightAware ADS-B
09:19AM 30.0650 -96.0643 282° West 426 490 17,300 1,800 Climbing FlightAware ADS-B
09:20AM 30.0778 -96.1321 282° West 435 501 18,200 1,860 Climbing FlightAware ADS-B
09:20AM 30.0908 -96.2013 282° West 440 506 19,200 1,920 Climbing FlightAware ADS-B
09:21AM 30.0986 -96.2435 282° West 443 510 19,800 1,800 Climbing FlightAware ADS-B
09:22AM 30.1200 -96.3839 280° West 449 517 21,600 1,680 Climbing FlightAware ADS-B
09:22AM 30.1309 -96.4558 280° West 455 524 22,400 1,440 Climbing FlightAware ADS-B
09:23AM 30.1424 -96.5310 280° West 462 532 23,100 1,200 Climbing FlightAware ADS-B
09:23AM 30.1537 -96.6056 280° West 468 539 23,700 1,260 Climbing FlightAware ADS-B
09:25AM 30.1876 -96.8317 280° West 480 552 25,700 1,260 Climbing FlightAware ADS-B
09:25AM 30.1991 -96.9083 280° West 483 556 26,300 1,140 Climbing FlightAware ADS-B
09:26AM 30.2106 -96.9858 280° West 486 559 26,900 1,140 Climbing FlightAware ADS-B
09:26AM 30.2222 -97.0640 280° West 489 563 27,500 1,080 Climbing FlightAware ADS-B
09:27AM 30.2350 -97.1512 280° West 493 567 28,100 1,260 Climbing FlightAware ADS-B
09:27AM 30.2465 -97.2304 280° West 490 564 28,900 1,500 Climbing FlightAware ADS-B
09:28AM 30.2588 -97.3148 280° West 487 560 29,700 1,320 Climbing FlightAware ADS-B
09:28AM 30.2700 -97.3919 280° West 488 562 30,300 1,140 Climbing FlightAware ADS-B
09:29AM 30.2819 -97.4736 280° West 488 562 30,900 1,140 Climbing FlightAware ADS-B
09:29AM 30.2932 -97.5520 279° West 486 559 31,500 1,140 Climbing FlightAware ADS-B
09:30AM 30.3042 -97.6289 279° West 484 557 32,100 1,140 Climbing FlightAware ADS-B
09:30AM 30.3156 -97.7089 279° West 483 556 32,700 1,260 Climbing FlightAware ADS-B
09:30AM 30.3163 -97.7140 279° West 483 556 32,800 1,020 Climbing FlightAware ADS-B
09:31AM 30.3278 -97.7951 279° West 483 556 33,300 900 Climbing FlightAware ADS-B
09:31AM 30.3306 -97.8147 279° West 482 555 33,400 960 Climbing FlightAware ADS-B
09:32AM 30.3450 -97.9020 281° West 481 554 34,000 960 Climbing FlightAware
09:32AM 30.3596 -97.9641 285° West 483 556 34,400 840 Climbing FlightAware ADS-B
09:32AM 30.3615 -97.9720 286° West 481 554 34,400 900 Level FlightAware ADS-B
09:33AM 30.3788 -98.0478 285° West 480 552 34,900 1,020 Climbing FlightAware ADS-B
09:33AM 30.3973 -98.1290 285° West 478 550 35,500 960 Climbing FlightAware ADS-B
09:34AM 30.4165 -98.2143 285° West 476 548 36,000 360 Climbing FlightAware ADS-B
09:34AM 30.4403 -98.3200 285° West 477 549 36,000  Level FlightAware ADS-B
09:35AM 30.4666 -98.4378 285° West 478 550 36,000  Level FlightAware ADS-B
09:36AM 30.4850 -98.5190 285° West 479 551 36,000  Level FlightAware
09:36AM 30.5080 -98.6210 285° West 480 552 36,000  Level FlightAware
09:37AM 30.5340 -98.7410 284° West 481 554 36,000  Level FlightAware
09:38AM 30.5560 -98.8400 284° West 478 550 36,000  Level FlightAware
09:39AM 30.5800 -98.9490 284° West 474 545 36,000  Level FlightAware
09:39AM 30.6010 -99.0480 284° West 473 544 36,000  Level FlightAware
09:40AM 30.6200 -99.1360 284° West 472 543 36,000  Level FlightAware
09:41AM 30.6430 -99.2430 284° West 472 543 36,000  Level FlightAware
09:41AM 30.6650 -99.3410 285° West 476 548 36,000  Level FlightAware
09:42AM 30.6880 -99.4530 283° West 476 548 36,000  Level FlightAware
09:43AM 30.7090 -99.5500 284° West 477 549 36,000  Level FlightAware
09:43AM 30.7310 -99.6510 284° West 479 551 36,000  Level FlightAware
09:44AM 30.7520 -99.7510 284° West 480 552 36,000  Level FlightAware
09:45AM 30.7820 -99.8910 284° West 482 555 36,000  Level FlightAware
09:46AM 30.8010 -99.9850 283° West 482 555 36,000  Level FlightAware
09:46AM 30.8250 -100.1010 284° West 482 555 36,000  Level FlightAware
09:47AM 30.8470 -100.2020 284° West 482 555 36,000  Level FlightAware
09:48AM 30.8670 -100.3010 283° West 482 555 36,000  Level FlightAware
09:48AM 30.8910 -100.4150 284° West 482 555 36,000  Level FlightAware
09:49AM 30.9100 -100.5090 283° West 481 554 36,000  Level FlightAware
09:50AM 30.9300 -100.6050 284° West 481 554 36,000  Level FlightAware
09:50AM 30.9520 -100.7150 283° West 480 552 36,000  Level FlightAware
09:51AM 30.9710 -100.8060 284° West 479 551 36,000  Level FlightAware
09:52AM 30.9910 -100.9070 283° West 479 551 36,000  Level FlightAware
09:52AM 31.0130 -101.0140 284° West 479 551 36,000  Level FlightAware
09:53AM 31.0290 -101.0980 283° West 479 551 36,000  Level FlightAware
09:54AM 31.0540 -101.2200 283° West 480 552 36,000  Level FlightAware
09:54AM 31.0740 -101.3230 283° West 480 552 36,000  Level FlightAware
09:55AM 31.0950 -101.4250 284° West 480 552 36,000  Level FlightAware
09:56AM 31.1170 -101.5390 283° West 480 552 36,000  Level FlightAware
09:57AM 31.1380 -101.6460 283° West 478 550 36,000  Level FlightAware
09:57AM 31.1600 -101.7570 283° West 479 551 36,000  Level FlightAware
09:58AM 31.1790 -101.8580 282° West 478 550 36,000  Level FlightAware
09:59AM 31.1990 -101.9590 283° West 477 549 36,000  Level FlightAware
09:59AM 31.2200 -102.0670 283° West 476 548 36,000  Level FlightAware
10:00AM 31.2390 -102.1690 282° West 475 547 36,000  Level FlightAware
10:01AM 31.2560 -102.2590 282° West 474 545 36,000  Level FlightAware
10:01AM 31.2770 -102.3690 283° West 473 544 36,000  Level FlightAware
10:02AM 31.2950 -102.4640 283° West 474 545 36,000  Level FlightAware
10:03AM 31.3110 -102.5540 282° West 474 545 36,000  Level FlightAware
10:04AM 31.3290 -102.6520 282° West 474 545 36,000  Level FlightAware
10:04AM 31.3440 -102.7330 282° West 474 545 36,000  Level FlightAware
10:05AM 31.3580 -102.8100 282° West 474 545 36,000  Level FlightAware
10:06AM 31.3860 -102.9640 282° West 474 545 36,000  Level FlightAware
10:07AM 31.4000 -103.0410 282° West 474 545 36,000  Level FlightAware
10:07AM 31.4180 -103.1430 282° West 474 545 36,000  Level FlightAware
10:08AM 31.4370 -103.2480 282° West 474 545 36,000  Level FlightAware
10:09AM 31.4510 -103.3250 282° West 474 545 36,000  Level FlightAware
10:10AM 31.4740 -103.4530 282° West 474 545 36,000  Level FlightAware
10:10AM 31.4890 -103.5320 283° West 474 545 36,000  Level FlightAware
10:11AM 31.5080 -103.6390 282° West 474 545 36,000  Level FlightAware
10:12AM 31.5220 -103.7160 282° West 474 545 36,000  Level FlightAware
10:15AM 31.6570 -104.4750 282° West 477 549 36,000  Level FlightAware
10:16AM 31.6750 -104.5830 281° West 478 550 36,000  Level FlightAware
10:17AM 31.6910 -104.6770 281° West 478 550 36,000  Level FlightAware
10:17AM 31.7120 -104.7950 282° West 479 551 36,000  Level FlightAware
10:18AM 31.7260 -104.8810 281° West 479 551 36,000  Level FlightAware
10:19AM 31.7430 -104.9850 281° West 479 551 36,000  Level FlightAware
10:20AM 31.7620 -105.0940 282° West 481 554 36,000  Level FlightAware
10:20AM 31.7750 -105.1750 281° West 481 554 36,000  Level FlightAware
10:21AM 31.7970 -105.3100 281° West 481 554 36,000  Level FlightAware
10:22AM 31.8150 -105.4150 281° West 481 554 36,000  Level FlightAware
10:23AM 31.8280 -105.4940 281° West 481 554 36,000  Level FlightAware
10:23AM 31.8450 -105.5980 281° West 481 554 36,000  Level FlightAware
10:24AM 31.8580 -105.6770 281° West 481 554 36,000  Level FlightAware
10:25AM 31.8710 -105.7580 281° West 481 554 36,000  Level FlightAware
10:25AM 31.8890 -105.8630 281° West 481 554 36,000  Level FlightAware
10:26AM 31.9020 -105.9420 281° West 481 554 36,000  Level FlightAware
10:27AM 31.9190 -106.0470 281° West 481 554 36,000  Level FlightAware
10:27AM 31.9320 -106.1260 281° West 481 554 36,000  Level FlightAware
10:28AM 31.9530 -106.2570 281° West 481 554 36,000  Level FlightAware
10:29AM 31.9660 -106.3360 281° West 481 554 36,000  Level FlightAware
10:30AM 32.0383 -106.6253 281° West 481 554 36,000 -120 Level Albuquerque Center
10:31AM 32.0764 -106.7769 287° West 482 555 35,900  Descending Albuquerque Center
10:32AM 32.1142 -106.9294 286° West 482 555 36,000  Climbing Albuquerque Center
10:33AM 32.1506 -107.0839 286° West 485 558 36,000  Level Albuquerque Center
10:34AM 32.1922 -107.2603 286° West 485 558 36,000 -60 Level Albuquerque Center
10:35AM 32.2275 -107.4131 285° West 484 557 35,900  Descending Albuquerque Center
10:36AM 32.2675 -107.5736 286° West 476 548 36,000  Climbing Albuquerque Center
10:41AM 32.4690 -108.3900 286° West 475 547 36,000  Level FlightAware
10:42AM 32.4980 -108.5120 286° West 477 549 36,000  Level FlightAware
10:43AM 32.5200 -108.6020 286° West 478 550 36,000  Level FlightAware
10:43AM 32.5410 -108.6890 286° West 479 551 36,000  Level FlightAware
10:44AM 32.5690 -108.8050 286° West 479 551 36,000  Level FlightAware
10:44AM 32.5910 -108.9010 285° West 480 552 36,000  Level FlightAware
10:45AM 32.6120 -108.9880 286° West 481 554 36,000  Level FlightAware
10:46AM 32.6350 -109.0860 286° West 484 557 36,000  Level FlightAware
10:46AM 32.6620 -109.1990 286° West 485 558 36,000  Level FlightAware
10:47AM 32.6880 -109.3110 285° West 485 558 36,000  Level FlightAware
10:48AM 32.7080 -109.3980 285° West 486 559 36,000  Level FlightAware
10:48AM 32.7330 -109.5060 285° West 485 558 36,000  Level FlightAware
10:49AM 32.7590 -109.6180 285° West 484 557 36,000  Level FlightAware
10:50AM 32.7770 -109.6950 286° West 483 556 36,000  Level FlightAware
10:50AM 32.8040 -109.8130 285° West 484 557 36,000  Level FlightAware
10:51AM 32.8290 -109.9220 285° West 485 558 36,000  Level FlightAware
10:52AM 32.8460 -109.9990 285° West 486 559 36,000  Level FlightAware
10:52AM 32.8740 -110.1200 285° West 486 559 36,000  Level FlightAware
10:53AM 32.8980 -110.2260 285° West 486 559 36,000  Level FlightAware
10:54AM 32.9230 -110.3370 285° West 485 558 36,000  Level FlightAware
10:54AM 32.9460 -110.4350 286° West 483 556 36,000  Level FlightAware
10:55AM 32.9710 -110.5490 285° West 481 554 36,000  Level FlightAware
10:56AM 32.9970 -110.6660 285° West 480 552 36,000  Level FlightAware
10:57AM 33.0190 -110.7700 284° West 480 552 36,000  Level FlightAware
10:57AM 33.0420 -110.8720 285° West 479 551 36,000  Level FlightAware
10:58AM 33.0660 -110.9820 285° West 477 549 36,000  Level FlightAware
10:59AM 33.0870 -111.0790 285° West 477 549 36,000  Level FlightAware
10:59AM 33.1130 -111.1960 285° West 477 549 36,000  Level FlightAware
11:00AM 33.1360 -111.3040 284° West 479 551 36,000  Level FlightAware
11:01AM 33.1580 -111.4050 285° West 480 552 36,000  Level FlightAware
11:02AM 33.1820 -111.5200 284° West 480 552 36,000  Level FlightAware
11:02AM 33.2030 -111.6150 285° West 480 552 36,000  Level FlightAware
11:03AM 33.2280 -111.7330 284° West 468 539 36,000  Level FlightAware
11:04AM 33.2490 -111.8340 284° West 466 536 36,000  Level FlightAware
11:04AM 33.2720 -111.9420 284° West 468 539 36,000  Level FlightAware
11:05AM 33.2930 -112.0440 284° West 478 550 36,000  Level FlightAware
11:06AM 33.3170 -112.1580 284° West 489 563 36,000  Level FlightAware
11:06AM 33.3400 -112.2670 284° West 493 567 36,000  Level FlightAware
11:07AM 33.3620 -112.3750 284° West 493 567 36,000  Level FlightAware
11:08AM 33.3830 -112.4780 284° West 492 566 36,000  Level FlightAware
11:09AM 33.4060 -112.5900 284° West 491 565 36,000  Level FlightAware
11:09AM 33.4270 -112.6930 284° West 490 564 36,000  Level FlightAware
11:10AM 33.4600 -112.8420 285° West 493 567 36,000  Level FlightAware
11:11AM 33.5030 -112.9630 293° West 494 568 36,000  Level FlightAware
11:12AM 33.5520 -113.1020 293° West 492 566 36,000  Level FlightAware
11:12AM 33.5890 -113.2050 293° West 491 565 36,000  Level FlightAware
11:13AM 33.6280 -113.3140 293° West 491 565 36,000  Level FlightAware
11:14AM 33.6650 -113.4180 293° West 490 564 36,000  Level FlightAware
11:15AM 33.6990 -113.5150 293° West 487 560 36,000  Level FlightAware
11:15AM 33.7310 -113.6070 293° West 484 557 36,000  Level FlightAware
11:16AM 33.7660 -113.7050 293° West 482 555 36,000  Level FlightAware
11:17AM 33.8040 -113.8150 293° West 481 554 36,000  Level FlightAware
11:17AM 33.8400 -113.9180 293° West 481 554 36,000  Level FlightAware
11:18AM 33.8750 -114.0190 293° West 482 555 36,000  Level FlightAware
11:19AM 33.9050 -114.1060 293° West 482 555 36,000  Level FlightAware
11:19AM 33.9470 -114.2300 292° West 472 543 36,000  Level FlightAware
11:20AM 33.9770 -114.3170 293° West 470 541 36,000  Level FlightAware
11:21AM 34.0120 -114.4210 292° West 469 540 36,000  Level FlightAware
11:21AM 34.0520 -114.5350 293° West 467 537 36,000  Level FlightAware
11:22AM 34.0820 -114.6240 292° West 467 537 36,000  Level FlightAware
11:23AM 34.1150 -114.7230 292° West 467 537 36,000  Level FlightAware
11:24AM 34.1400 -114.7970 292° West 467 537 36,000  Level FlightAware
11:24AM 34.1710 -114.8920 292° West 467 537 36,000  Level FlightAware
11:25AM 34.1060 -115.0290 240° Southwest 456 525 36,000  Level FlightAware
11:26AM 34.1060 -115.1610 270° West 456 525 36,000  Level FlightAware
11:26AM 34.1090 -115.2910 272° West 453 521 36,000  Level FlightAware
11:27AM 34.1100 -115.3860 271° West 452 520 36,000 -360 Level FlightAware
11:28AM 34.1110 -115.5730 270° West 448 516 35,400 -720 Descending FlightAware
11:29AM 34.1120 -115.6750 271° West 445 512 34,700 -1,020 Descending FlightAware
11:30AM 34.1050 -115.8170 267° West 443 510 33,800 -960 Descending FlightAware
11:31AM 34.0910 -115.9100 260° West 445 512 33,200 -1,080 Descending FlightAware
11:31AM 34.0750 -116.0180 260° West 444 511 32,400 -1,020 Descending FlightAware
11:32AM 34.0600 -116.1250 260° West 436 502 31,700 -1,260 Descending FlightAware
11:33AM 34.0450 -116.2240 260° West 431 496 30,600 -1,860 Descending FlightAware
11:33AM 34.0320 -116.3120 260° West 422 486 29,300 -2,100 Descending FlightAware
11:34AM 34.0160 -116.4120 259° West 413 475 27,800 -2,100 Descending FlightAware
11:35AM 34.0040 -116.5080 261° West 407 468 26,300 -2,100 Descending FlightAware
11:36AM 33.9960 -116.5960 264° West 400 460 25,000 -1,980 Descending FlightAware
11:36AM 33.9900 -116.6720 265° West 393 452 23,800 -2,040 Descending FlightAware
11:37AM 33.9820 -116.7710 264° West 385 443 22,300 -2,040 Descending FlightAware
11:38AM 33.9750 -116.8560 264° West 378 435 21,000 -1,980 Descending FlightAware
11:38AM 33.9680 -116.9510 265° West 370 426 19,500 -1,920 Descending FlightAware
11:39AM 33.9610 -117.0300 264° West 364 419 18,300 -1,860 Descending FlightAware
11:40AM 33.9550 -117.1070 265° West 359 413 17,100 -1,080 Descending FlightAware
11:40AM 33.9470 -117.1910 263° West 357 411 16,900 -960 Descending FlightAware
11:41AM 33.9410 -117.2610 264° West 351 404 15,900 -1,740 Descending FlightAware
11:42AM 33.9340 -117.3490 265° West 344 396 14,600 -1,740 Descending FlightAware
11:42AM 33.9490 -117.4230 284° West 338 389 13,400 -1,800 Descending FlightAware
11:43AM 33.9700 -117.4810 294° West 333 383 12,400 -1,740 Descending FlightAware
11:44AM 33.9960 -117.5550 293° West 316 364 11,200 -1,260 Descending FlightAware
11:44AM 34.0200 -117.6200 294° West 297 342 10,600 -840 Descending FlightAware
11:45AM 34.0220 -117.7010 272° West 277 319 9,900 -900 Descending FlightAware
11:46AM 34.0190 -117.7290 263° West 273 314 9,600 -1,200 Descending FlightAware
11:46AM 34.0170 -117.7480 263° West 282 325 9,300 -1,320 Descending FlightAware
11:46AM 34.0130 -117.7920 264° West 285 328 8,700 -1,320 Descending FlightAware
11:47AM 34.0080 -117.8410 263° West 280 322 8,000 -1,380 Descending FlightAware
11:47AM 34.0040 -117.8850 264° West 276 318 7,400 -1,200 Descending FlightAware
11:47AM 34.0020 -117.9010 261° West 276 318 7,200 -1,200 Descending FlightAware
11:48AM 33.9980 -117.9460 264° West 274 315 6,600 -1,080 Descending FlightAware
11:48AM 33.9940 -117.9890 264° West 274 315 6,200 -900 Descending FlightAware
11:49AM 33.9920 -118.0070 262° West 273 314 6,000 -1,200 Descending FlightAware
11:49AM 33.9880 -118.0500 264° West 257 296 5,400 -960 Descending FlightAware
11:49AM 33.9840 -118.0870 263° West 242 278 5,100 -780 Descending FlightAware
11:50AM 33.9800 -118.1240 263° West 226 260 4,700 -1,080 Descending FlightAware
11:50AM 33.9790 -118.1390 265° West 221 254 4,400 -1,080 Descending FlightAware
11:51AM 33.9750 -118.1770 263° West 207 238 3,900 -1,200 Descending FlightAware
11:51AM 33.9720 -118.2050 263° West 209 241 3,300 -1,320 Descending FlightAware
11:51AM 33.9690 -118.2300 262° West 206 237 2,900 -1,140 Descending FlightAware
11:52AM 33.9660 -118.2620 264° West 200 230 2,400 -1,140 Descending FlightAware
11:52AM 33.9630 -118.2920 263° West 193 222 1,900 -960 Descending FlightAware
11:53AM 33.9630 -118.2990 270° West 187 215 1,800 -1,020 Descending FlightAware
11:53AM 33.9580 -118.3430 262° West 155 178 1,000 -900 Descending FlightAware
11:54AM 33.9550 -118.3750 264° West 163 188 600 -780 Descending FlightAware
11:54AM 33.9520 -118.4000 262° West 163 188 200 -840 Descending FlightAware
11:55AM 33.9490 -118.4310 263° West 151 174 -300 Descending FlightAware